sensor_id;sensor_type;location;lat;lon;timestamp;noise_LAeq;noise_LA_min;noise_LA_max;noise_LA01;noise_LA95
70077;Laerm;57448;51.490;5.436;2024-01-16T00:01:09;44.19;42.39;47.12;;
70077;Laerm;57448;51.490;5.436;2024-01-16T00:03:34;43.47;41.70;45.01;;
70077;Laerm;57448;51.490;5.436;2024-01-16T00:06:00;43.77;42.83;45.30;;
70077;Laerm;57448;51.490;5.436;2024-01-16T00:08:25;44.10;42.37;47.49;;
70077;Laerm;57448;51.490;5.436;2024-01-16T00:10:51;46.58;42.88;64.51;;
70077;Laerm;57448;51.490;5.436;2024-01-16T00:13:16;44.81;42.98;59.45;;
70077;Laerm;57448;51.490;5.436;2024-01-16T00:15:42;44.30;43.31;46.65;;
70077;Laerm;57448;51.490;5.436;2024-01-16T00:18:07;44.19;43.12;45.93;;
70077;Laerm;57448;51.490;5.436;2024-01-16T00:20:33;44.89;42.96;48.88;;
70077;Laerm;57448;51.490;5.436;2024-01-16T00:22:59;44.46;42.77;48.46;;
70077;Laerm;57448;51.490;5.436;2024-01-16T00:25:24;44.00;42.31;49.88;;
70077;Laerm;57448;51.490;5.436;2024-01-16T00:27:50;44.84;42.75;56.37;;
70077;Laerm;57448;51.490;5.436;2024-01-16T00:30:15;44.17;42.85;46.28;;
70077;Laerm;57448;51.490;5.436;2024-01-16T00:32:40;44.05;42.45;46.94;;
70077;Laerm;57448;51.490;5.436;2024-01-16T00:35:06;43.52;42.68;45.56;;
70077;Laerm;57448;51.490;5.436;2024-01-16T00:37:31;44.19;42.69;47.95;;
70077;Laerm;57448;51.490;5.436;2024-01-16T00:39:56;44.94;43.36;57.63;;
70077;Laerm;57448;51.490;5.436;2024-01-16T00:42:22;44.34;43.20;50.77;;
70077;Laerm;57448;51.490;5.436;2024-01-16T00:44:47;44.39;43.07;52.30;;
70077;Laerm;57448;51.490;5.436;2024-01-16T00:47:13;43.99;42.67;47.24;;
70077;Laerm;57448;51.490;5.436;2024-01-16T00:49:38;43.89;42.93;48.72;;
70077;Laerm;57448;51.490;5.436;2024-01-16T00:52:03;44.09;42.95;47.87;;
70077;Laerm;57448;51.490;5.436;2024-01-16T00:54:29;45.45;42.88;65.64;;
70077;Laerm;57448;51.490;5.436;2024-01-16T00:56:54;44.14;42.84;49.62;;
70077;Laerm;57448;51.490;5.436;2024-01-16T00:59:24;44.04;43.02;48.18;;
70077;Laerm;57448;51.490;5.436;2024-01-16T01:01:50;43.57;42.66;46.69;;
70077;Laerm;57448;51.490;5.436;2024-01-16T01:04:15;43.77;42.78;45.44;;
70077;Laerm;57448;51.490;5.436;2024-01-16T01:06:40;44.48;43.01;64.25;;
70077;Laerm;57448;51.490;5.436;2024-01-16T01:09:06;44.40;42.97;50.03;;
70077;Laerm;57448;51.490;5.436;2024-01-16T01:11:31;44.01;42.91;54.88;;
70077;Laerm;57448;51.490;5.436;2024-01-16T01:13:57;44.73;43.23;48.75;;
70077;Laerm;57448;51.490;5.436;2024-01-16T01:16:22;44.84;43.12;50.06;;
70077;Laerm;57448;51.490;5.436;2024-01-16T01:18:47;43.80;42.88;45.99;;
70077;Laerm;57448;51.490;5.436;2024-01-16T01:21:13;44.22;43.11;52.12;;
70077;Laerm;57448;51.490;5.436;2024-01-16T01:23:38;44.07;42.90;51.00;;
70077;Laerm;57448;51.490;5.436;2024-01-16T01:26:03;44.44;43.02;56.31;;
70077;Laerm;57448;51.490;5.436;2024-01-16T01:28:29;45.74;42.10;62.26;;
70077;Laerm;57448;51.490;5.436;2024-01-16T01:30:55;44.49;43.19;47.55;;
70077;Laerm;57448;51.490;5.436;2024-01-16T01:33:20;44.35;43.05;59.88;;
70077;Laerm;57448;51.490;5.436;2024-01-16T01:35:46;44.35;43.36;51.92;;
70077;Laerm;57448;51.490;5.436;2024-01-16T01:38:11;44.50;43.55;47.38;;
70077;Laerm;57448;51.490;5.436;2024-01-16T01:40:36;45.95;43.48;64.34;;
70077;Laerm;57448;51.490;5.436;2024-01-16T01:43:18;44.85;43.48;57.31;;
70077;Laerm;57448;51.490;5.436;2024-01-16T01:45:45;47.33;43.78;63.62;;
70077;Laerm;57448;51.490;5.436;2024-01-16T01:48:12;44.64;43.41;48.30;;
70077;Laerm;57448;51.490;5.436;2024-01-16T01:50:38;47.52;43.48;67.28;;
70077;Laerm;57448;51.490;5.436;2024-01-16T01:53:03;47.22;43.62;62.00;;
70077;Laerm;57448;51.490;5.436;2024-01-16T01:55:29;45.27;43.86;53.13;;
70077;Laerm;57448;51.490;5.436;2024-01-16T01:57:54;44.92;43.70;49.34;;
70077;Laerm;57448;51.490;5.436;2024-01-16T02:00:21;45.05;43.90;47.94;;
70077;Laerm;57448;51.490;5.436;2024-01-16T02:02:47;44.89;43.86;48.14;;
70077;Laerm;57448;51.490;5.436;2024-01-16T02:05:12;45.13;43.83;56.79;;
70077;Laerm;57448;51.490;5.436;2024-01-16T02:07:38;52.90;44.26;74.31;;
70077;Laerm;57448;51.490;5.436;2024-01-16T02:10:04;53.31;46.56;70.09;;
70077;Laerm;57448;51.490;5.436;2024-01-16T02:12:29;46.26;44.12;61.04;;
70077;Laerm;57448;51.490;5.436;2024-01-16T02:14:55;47.03;44.37;63.26;;
70077;Laerm;57448;51.490;5.436;2024-01-16T02:17:20;46.02;43.43;62.30;;
70077;Laerm;57448;51.490;5.436;2024-01-16T02:19:45;45.06;43.59;52.68;;
70077;Laerm;57448;51.490;5.436;2024-01-16T02:22:12;44.49;43.07;54.69;;
70077;Laerm;57448;51.490;5.436;2024-01-16T02:24:41;44.64;43.35;47.91;;
70077;Laerm;57448;51.490;5.436;2024-01-16T02:27:06;44.96;43.32;51.06;;
70077;Laerm;57448;51.490;5.436;2024-01-16T02:29:32;45.42;43.38;56.13;;
70077;Laerm;57448;51.490;5.436;2024-01-16T02:31:57;45.56;43.19;59.39;;
70077;Laerm;57448;51.490;5.436;2024-01-16T02:34:23;44.89;43.09;54.35;;
70077;Laerm;57448;51.490;5.436;2024-01-16T02:36:48;43.95;42.90;47.27;;
70077;Laerm;57448;51.490;5.436;2024-01-16T02:39:13;44.19;42.90;47.36;;
70077;Laerm;57448;51.490;5.436;2024-01-16T02:41:39;44.15;42.86;49.58;;
70077;Laerm;57448;51.490;5.436;2024-01-16T02:44:05;44.23;42.80;49.62;;
70077;Laerm;57448;51.490;5.436;2024-01-16T02:46:30;49.02;42.91;76.74;;
70077;Laerm;57448;51.490;5.436;2024-01-16T02:48:56;43.95;42.63;46.44;;
70077;Laerm;57448;51.490;5.436;2024-01-16T02:51:21;46.69;43.12;72.29;;
70077;Laerm;57448;51.490;5.436;2024-01-16T02:53:47;45.02;43.41;56.01;;
70077;Laerm;57448;51.490;5.436;2024-01-16T02:56:12;44.49;43.09;53.79;;
70077;Laerm;57448;51.490;5.436;2024-01-16T02:58:38;47.45;43.34;63.36;;
70077;Laerm;57448;51.490;5.436;2024-01-16T03:01:03;47.39;43.17;61.97;;
70077;Laerm;57448;51.490;5.436;2024-01-16T03:03:28;44.93;43.71;52.60;;
70077;Laerm;57448;51.490;5.436;2024-01-16T03:05:54;44.90;43.37;48.42;;
70077;Laerm;57448;51.490;5.436;2024-01-16T03:08:21;44.61;43.71;46.31;;
70077;Laerm;57448;51.490;5.436;2024-01-16T03:10:46;44.47;43.33;46.80;;
70077;Laerm;57448;51.490;5.436;2024-01-16T03:13:11;44.30;43.37;46.66;;
70077;Laerm;57448;51.490;5.436;2024-01-16T03:15:37;44.37;43.30;46.54;;
70077;Laerm;57448;51.490;5.436;2024-01-16T03:18:02;44.06;43.11;45.64;;
70077;Laerm;57448;51.490;5.436;2024-01-16T03:20:28;43.96;42.92;45.26;;
70077;Laerm;57448;51.490;5.436;2024-01-16T03:22:53;43.94;42.98;51.62;;
70077;Laerm;57448;51.490;5.436;2024-01-16T03:25:19;44.15;43.21;45.24;;
70077;Laerm;57448;51.490;5.436;2024-01-16T03:27:44;43.88;42.66;46.18;;
70077;Laerm;57448;51.490;5.436;2024-01-16T03:30:09;43.95;42.97;45.39;;
70077;Laerm;57448;51.490;5.436;2024-01-16T03:32:35;43.95;43.01;45.24;;
70077;Laerm;57448;51.490;5.436;2024-01-16T03:35:01;44.72;42.98;48.83;;
70077;Laerm;57448;51.490;5.436;2024-01-16T03:37:26;44.51;43.39;46.49;;
70077;Laerm;57448;51.490;5.436;2024-01-16T03:39:51;43.98;43.07;45.06;;
70077;Laerm;57448;51.490;5.436;2024-01-16T03:42:17;43.83;42.92;45.12;;
70077;Laerm;57448;51.490;5.436;2024-01-16T03:44:42;43.92;43.14;45.55;;
70077;Laerm;57448;51.490;5.436;2024-01-16T03:47:08;44.32;43.05;46.44;;
70077;Laerm;57448;51.490;5.436;2024-01-16T03:49:34;44.68;43.12;47.39;;
70077;Laerm;57448;51.490;5.436;2024-01-16T03:52:00;44.10;43.06;45.56;;
70077;Laerm;57448;51.490;5.436;2024-01-16T03:54:25;44.64;43.59;46.35;;
70077;Laerm;57448;51.490;5.436;2024-01-16T03:56:51;45.03;43.90;46.29;;
70077;Laerm;57448;51.490;5.436;2024-01-16T03:59:16;44.60;43.35;46.33;;
70077;Laerm;57448;51.490;5.436;2024-01-16T04:01:41;44.14;43.03;45.41;;
70077;Laerm;57448;51.490;5.436;2024-01-16T04:04:09;44.64;43.24;46.26;;
70077;Laerm;57448;51.490;5.436;2024-01-16T04:06:34;44.96;43.40;46.87;;
70077;Laerm;57448;51.490;5.436;2024-01-16T04:09:00;45.17;43.65;47.95;;
70077;Laerm;57448;51.490;5.436;2024-01-16T04:11:25;45.18;43.77;46.91;;
70077;Laerm;57448;51.490;5.436;2024-01-16T04:13:51;45.33;43.99;47.55;;
70077;Laerm;57448;51.490;5.436;2024-01-16T04:16:16;46.01;44.79;47.75;;
70077;Laerm;57448;51.490;5.436;2024-01-16T04:18:42;46.39;44.88;48.64;;
70077;Laerm;57448;51.490;5.436;2024-01-16T04:21:08;46.27;45.06;47.72;;
70077;Laerm;57448;51.490;5.436;2024-01-16T04:23:33;45.97;44.58;47.80;;
70077;Laerm;57448;51.490;5.436;2024-01-16T04:25:59;46.64;44.74;50.82;;
70077;Laerm;57448;51.490;5.436;2024-01-16T04:28:24;46.58;44.99;48.39;;
70077;Laerm;57448;51.490;5.436;2024-01-16T04:30:50;46.64;45.52;48.35;;
70077;Laerm;57448;51.490;5.436;2024-01-16T04:33:15;47.47;45.92;51.60;;
70077;Laerm;57448;51.490;5.436;2024-01-16T04:35:41;47.58;46.34;50.24;;
70077;Laerm;57448;51.490;5.436;2024-01-16T04:38:06;47.67;45.99;50.93;;
70077;Laerm;57448;51.490;5.436;2024-01-16T04:40:32;47.86;46.27;49.83;;
70077;Laerm;57448;51.490;5.436;2024-01-16T04:42:58;47.66;46.23;50.15;;
70077;Laerm;57448;51.490;5.436;2024-01-16T04:45:23;47.88;46.33;49.61;;
70077;Laerm;57448;51.490;5.436;2024-01-16T04:47:48;47.51;45.85;49.70;;
70077;Laerm;57448;51.490;5.436;2024-01-16T04:50:14;48.39;46.51;64.33;;
70077;Laerm;57448;51.490;5.436;2024-01-16T04:52:39;47.84;46.37;49.19;;
70077;Laerm;57448;51.490;5.436;2024-01-16T04:55:04;48.18;46.71;49.85;;
70077;Laerm;57448;51.490;5.436;2024-01-16T04:57:30;47.72;46.37;49.92;;
70077;Laerm;57448;51.490;5.436;2024-01-16T04:59:55;47.40;45.83;49.13;;
70077;Laerm;57448;51.490;5.436;2024-01-16T05:02:21;47.96;46.49;49.84;;
70077;Laerm;57448;51.490;5.436;2024-01-16T05:04:46;47.79;46.11;49.25;;
70077;Laerm;57448;51.490;5.436;2024-01-16T05:07:14;48.10;46.25;49.80;;
70077;Laerm;57448;51.490;5.436;2024-01-16T05:09:40;47.92;46.27;49.83;;
70077;Laerm;57448;51.490;5.436;2024-01-16T05:12:05;48.81;47.04;50.20;;
70077;Laerm;57448;51.490;5.436;2024-01-16T05:14:30;50.53;49.01;52.03;;
70077;Laerm;57448;51.490;5.436;2024-01-16T05:16:56;50.21;49.02;52.17;;
70077;Laerm;57448;51.490;5.436;2024-01-16T05:19:21;49.51;48.24;51.25;;
70077;Laerm;57448;51.490;5.436;2024-01-16T05:21:46;48.73;47.07;50.41;;
70077;Laerm;57448;51.490;5.436;2024-01-16T05:24:12;48.59;47.42;50.12;;
70077;Laerm;57448;51.490;5.436;2024-01-16T05:26:37;48.38;47.17;49.89;;
70077;Laerm;57448;51.490;5.436;2024-01-16T05:29:02;48.43;46.82;49.96;;
70077;Laerm;57448;51.490;5.436;2024-01-16T05:31:28;48.66;47.12;54.22;;
70077;Laerm;57448;51.490;5.436;2024-01-16T05:33:53;48.69;47.48;50.17;;
70077;Laerm;57448;51.490;5.436;2024-01-16T05:36:18;48.81;47.27;50.17;;
70077;Laerm;57448;51.490;5.436;2024-01-16T05:38:44;49.10;47.61;52.52;;
70077;Laerm;57448;51.490;5.436;2024-01-16T05:41:09;48.36;46.48;49.99;;
70077;Laerm;57448;51.490;5.436;2024-01-16T05:43:35;49.04;47.45;50.37;;
70077;Laerm;57448;51.490;5.436;2024-01-16T05:46:00;48.44;47.08;49.91;;
70077;Laerm;57448;51.490;5.436;2024-01-16T05:48:26;48.49;47.08;50.60;;
70077;Laerm;57448;51.490;5.436;2024-01-16T05:50:51;48.67;46.90;51.11;;
70077;Laerm;57448;51.490;5.436;2024-01-16T05:53:16;48.51;47.14;50.21;;
70077;Laerm;57448;51.490;5.436;2024-01-16T05:55:42;48.45;46.69;50.21;;
70077;Laerm;57448;51.490;5.436;2024-01-16T05:58:07;49.33;47.44;53.41;;
70077;Laerm;57448;51.490;5.436;2024-01-16T06:00:33;49.44;47.62;55.72;;
70077;Laerm;57448;51.490;5.436;2024-01-16T06:02:59;49.48;47.94;51.79;;
70077;Laerm;57448;51.490;5.436;2024-01-16T06:05:24;49.71;48.25;51.21;;
70077;Laerm;57448;51.490;5.436;2024-01-16T06:07:50;51.00;49.43;52.69;;
70077;Laerm;57448;51.490;5.436;2024-01-16T06:10:15;52.49;50.03;67.98;;
70077;Laerm;57448;51.490;5.436;2024-01-16T06:12:40;53.00;51.62;54.63;;
70077;Laerm;57448;51.490;5.436;2024-01-16T06:15:06;54.01;53.06;54.73;;
70077;Laerm;57448;51.490;5.436;2024-01-16T06:17:32;54.01;52.22;54.89;;
70077;Laerm;57448;51.490;5.436;2024-01-16T06:19:57;52.89;51.12;54.32;;
70077;Laerm;57448;51.490;5.436;2024-01-16T06:22:22;54.19;52.59;55.05;;
70077;Laerm;57448;51.490;5.436;2024-01-16T06:24:48;53.34;51.45;55.28;;
70077;Laerm;57448;51.490;5.436;2024-01-16T06:27:13;53.04;51.71;54.54;;
70077;Laerm;57448;51.490;5.436;2024-01-16T06:29:44;51.78;50.76;52.97;;
70077;Laerm;57448;51.490;5.436;2024-01-16T06:32:09;51.81;50.42;58.08;;
70077;Laerm;57448;51.490;5.436;2024-01-16T06:34:35;50.93;49.06;59.25;;
70077;Laerm;57448;51.490;5.436;2024-01-16T06:37:00;51.06;49.55;62.68;;
70077;Laerm;57448;51.490;5.436;2024-01-16T06:39:25;51.76;49.48;63.89;;
70077;Laerm;57448;51.490;5.436;2024-01-16T06:41:51;50.27;48.98;51.68;;
70077;Laerm;57448;51.490;5.436;2024-01-16T06:44:16;50.97;49.45;62.17;;
70077;Laerm;57448;51.490;5.436;2024-01-16T06:46:41;50.49;48.82;61.30;;
70077;Laerm;57448;51.490;5.436;2024-01-16T06:49:07;50.12;48.69;51.43;;
70077;Laerm;57448;51.490;5.436;2024-01-16T06:51:32;49.86;48.25;64.14;;
70077;Laerm;57448;51.490;5.436;2024-01-16T06:53:57;50.40;48.31;65.47;;
70077;Laerm;57448;51.490;5.436;2024-01-16T06:56:23;51.19;48.50;66.42;;
70077;Laerm;57448;51.490;5.436;2024-01-16T06:58:49;54.13;48.70;65.65;;
70077;Laerm;57448;51.490;5.436;2024-01-16T07:01:14;49.70;47.89;56.79;;
70077;Laerm;57448;51.490;5.436;2024-01-16T07:03:40;49.07;47.86;50.77;;
70077;Laerm;57448;51.490;5.436;2024-01-16T07:06:06;49.43;47.46;55.43;;
70077;Laerm;57448;51.490;5.436;2024-01-16T07:08:31;49.39;47.77;56.49;;
70077;Laerm;57448;51.490;5.436;2024-01-16T07:10:56;50.11;48.19;60.95;;
70077;Laerm;57448;51.490;5.436;2024-01-16T07:13:22;49.74;47.86;63.43;;
70077;Laerm;57448;51.490;5.436;2024-01-16T07:15:47;50.16;48.17;60.24;;
70077;Laerm;57448;51.490;5.436;2024-01-16T07:18:13;50.11;47.94;61.81;;
70077;Laerm;57448;51.490;5.436;2024-01-16T07:20:39;49.14;46.50;65.70;;
70077;Laerm;57448;51.490;5.436;2024-01-16T07:23:04;50.35;45.90;68.44;;
70077;Laerm;57448;51.490;5.436;2024-01-16T07:25:30;46.71;44.53;53.49;;
70077;Laerm;57448;51.490;5.436;2024-01-16T07:27:55;46.61;44.20;59.72;;
70077;Laerm;57448;51.490;5.436;2024-01-16T07:30:21;46.29;43.92;56.46;;
70077;Laerm;57448;51.490;5.436;2024-01-16T07:32:46;47.27;42.97;65.77;;
70077;Laerm;57448;51.490;5.436;2024-01-16T07:35:12;45.19;43.11;55.11;;
70077;Laerm;57448;51.490;5.436;2024-01-16T07:37:37;44.06;42.13;47.14;;
70077;Laerm;57448;51.490;5.436;2024-01-16T07:40:03;44.21;42.43;47.47;;
70077;Laerm;57448;51.490;5.436;2024-01-16T07:42:31;49.72;42.20;62.38;;
70077;Laerm;57448;51.490;5.436;2024-01-16T07:44:59;44.48;41.51;61.47;;
70077;Laerm;57448;51.490;5.436;2024-01-16T07:47:24;45.19;41.56;56.32;;
70077;Laerm;57448;51.490;5.436;2024-01-16T07:49:49;44.07;41.82;56.72;;
70077;Laerm;57448;51.490;5.436;2024-01-16T07:52:15;43.25;41.47;46.21;;
70077;Laerm;57448;51.490;5.436;2024-01-16T07:54:40;44.15;41.05;56.78;;
70077;Laerm;57448;51.490;5.436;2024-01-16T07:57:06;43.49;41.98;52.16;;
70077;Laerm;57448;51.490;5.436;2024-01-16T07:59:31;43.79;41.62;55.13;;
70077;Laerm;57448;51.490;5.436;2024-01-16T08:01:56;43.67;41.53;58.79;;
70077;Laerm;57448;51.490;5.436;2024-01-16T08:04:22;44.14;40.85;57.23;;
70077;Laerm;57448;51.490;5.436;2024-01-16T08:06:47;48.21;40.95;61.13;;
70077;Laerm;57448;51.490;5.436;2024-01-16T08:09:12;43.59;41.11;49.04;;
70077;Laerm;57448;51.490;5.436;2024-01-16T08:11:39;43.04;40.80;55.78;;
70077;Laerm;57448;51.490;5.436;2024-01-16T08:14:04;48.51;41.96;62.14;;
70077;Laerm;57448;51.490;5.436;2024-01-16T08:16:30;42.75;40.38;45.27;;
70077;Laerm;57448;51.490;5.436;2024-01-16T08:18:55;44.66;39.79;61.34;;
70077;Laerm;57448;51.490;5.436;2024-01-16T08:21:20;42.63;40.40;48.66;;
70077;Laerm;57448;51.490;5.436;2024-01-16T08:23:46;42.44;40.68;45.93;;
70077;Laerm;57448;51.490;5.436;2024-01-16T08:26:11;45.05;40.26;63.47;;
70077;Laerm;57448;51.490;5.436;2024-01-16T08:28:36;42.68;40.18;53.24;;
70077;Laerm;57448;51.490;5.436;2024-01-16T08:31:02;42.12;40.07;48.66;;
70077;Laerm;57448;51.490;5.436;2024-01-16T08:33:27;42.29;40.04;48.86;;
70077;Laerm;57448;51.490;5.436;2024-01-16T08:35:52;46.66;40.35;57.78;;
70077;Laerm;57448;51.490;5.436;2024-01-16T08:38:18;42.28;40.36;46.06;;
70077;Laerm;57448;51.490;5.436;2024-01-16T08:40:43;42.64;40.15;47.45;;
70077;Laerm;57448;51.490;5.436;2024-01-16T08:43:09;42.59;40.69;45.39;;
70077;Laerm;57448;51.490;5.436;2024-01-16T08:45:34;42.03;39.97;46.00;;
70077;Laerm;57448;51.490;5.436;2024-01-16T08:47:59;43.11;40.99;54.26;;
70077;Laerm;57448;51.490;5.436;2024-01-16T08:50:25;42.62;40.33;55.78;;
70077;Laerm;57448;51.490;5.436;2024-01-16T08:52:50;47.16;40.44;67.21;;
70077;Laerm;57448;51.490;5.436;2024-01-16T08:55:15;43.54;39.53;59.84;;
70077;Laerm;57448;51.490;5.436;2024-01-16T08:57:41;41.37;39.62;47.55;;
70077;Laerm;57448;51.490;5.436;2024-01-16T09:00:06;43.26;39.87;57.73;;
70077;Laerm;57448;51.490;5.436;2024-01-16T09:02:34;41.72;39.77;52.91;;
70077;Laerm;57448;51.490;5.436;2024-01-16T09:04:59;42.34;39.98;50.38;;
70077;Laerm;57448;51.490;5.436;2024-01-16T09:07:24;42.36;39.69;57.19;;
70077;Laerm;57448;51.490;5.436;2024-01-16T09:09:50;41.92;39.95;47.14;;
70077;Laerm;57448;51.490;5.436;2024-01-16T09:12:15;41.07;39.15;46.97;;
70077;Laerm;57448;51.490;5.436;2024-01-16T09:14:41;40.88;38.68;44.18;;
70077;Laerm;57448;51.490;5.436;2024-01-16T09:17:06;41.77;39.58;53.36;;
70077;Laerm;57448;51.490;5.436;2024-01-16T09:19:31;42.52;40.05;50.06;;
70077;Laerm;57448;51.490;5.436;2024-01-16T09:21:57;47.27;39.79;65.93;;
70077;Laerm;57448;51.490;5.436;2024-01-16T09:24:22;44.20;40.53;57.31;;
70077;Laerm;57448;51.490;5.436;2024-01-16T09:26:48;42.96;39.57;60.18;;
70077;Laerm;57448;51.490;5.436;2024-01-16T09:29:13;41.68;39.64;45.45;;
70077;Laerm;57448;51.490;5.436;2024-01-16T09:31:39;41.98;39.70;49.44;;
70077;Laerm;57448;51.490;5.436;2024-01-16T09:34:05;48.05;39.86;60.67;;
70077;Laerm;57448;51.490;5.436;2024-01-16T09:36:30;41.93;39.73;51.11;;
70077;Laerm;57448;51.490;5.436;2024-01-16T09:38:56;43.21;40.46;55.10;;
70077;Laerm;57448;51.490;5.436;2024-01-16T09:41:21;43.25;40.27;56.01;;
70077;Laerm;57448;51.490;5.436;2024-01-16T09:43:47;44.50;39.91;54.84;;
70077;Laerm;57448;51.490;5.436;2024-01-16T09:46:12;42.90;40.92;50.42;;
70077;Laerm;57448;51.490;5.436;2024-01-16T09:48:39;43.47;41.30;49.80;;
70077;Laerm;57448;51.490;5.436;2024-01-16T09:51:05;43.45;41.82;47.01;;
70077;Laerm;57448;51.490;5.436;2024-01-16T09:53:30;43.48;40.88;47.06;;
70077;Laerm;57448;51.490;5.436;2024-01-16T09:55:57;43.62;41.49;48.87;;
70077;Laerm;57448;51.490;5.436;2024-01-16T09:58:26;43.72;41.57;55.12;;
70077;Laerm;57448;51.490;5.436;2024-01-16T10:00:53;44.00;41.27;50.68;;
70077;Laerm;57448;51.490;5.436;2024-01-16T10:03:19;44.16;42.26;49.79;;
70077;Laerm;57448;51.490;5.436;2024-01-16T10:05:45;44.66;41.94;59.69;;
70077;Laerm;57448;51.490;5.436;2024-01-16T10:08:12;44.28;41.18;58.76;;
70077;Laerm;57448;51.490;5.436;2024-01-16T10:10:38;46.00;42.71;66.17;;
70077;Laerm;57448;51.490;5.436;2024-01-16T10:13:04;46.04;42.37;65.13;;
70077;Laerm;57448;51.490;5.436;2024-01-16T10:15:31;45.32;43.08;50.72;;
70077;Laerm;57448;51.490;5.436;2024-01-16T10:17:56;45.33;42.33;52.59;;
70077;Laerm;57448;51.490;5.436;2024-01-16T10:20:31;45.29;43.13;54.95;;
70077;Laerm;57448;51.490;5.436;2024-01-16T10:22:57;45.52;43.83;49.84;;
70077;Laerm;57448;51.490;5.436;2024-01-16T10:25:23;45.28;43.01;57.22;;
70077;Laerm;57448;51.490;5.436;2024-01-16T10:27:49;45.72;43.09;52.19;;
70077;Laerm;57448;51.490;5.436;2024-01-16T10:30:14;46.87;44.32;58.25;;
70077;Laerm;57448;51.490;5.436;2024-01-16T10:32:40;45.99;43.55;56.83;;
70077;Laerm;57448;51.490;5.436;2024-01-16T10:35:07;46.97;44.78;57.01;;
70077;Laerm;57448;51.490;5.436;2024-01-16T10:37:52;47.32;45.35;55.95;;
70077;Laerm;57448;51.490;5.436;2024-01-16T10:40:24;48.48;46.46;59.87;;
70077;Laerm;57448;51.490;5.436;2024-01-16T10:43:23;49.03;45.88;61.18;;
70077;Laerm;57448;51.490;5.436;2024-01-16T10:45:41;50.61;48.19;58.20;;
70077;Laerm;57448;51.490;5.436;2024-01-16T10:48:07;50.82;47.48;60.85;;
70077;Laerm;57448;51.490;5.436;2024-01-16T10:50:33;49.88;45.39;68.74;;
70077;Laerm;57448;51.490;5.436;2024-01-16T10:53:00;48.21;44.78;59.48;;
70077;Laerm;57448;51.490;5.436;2024-01-16T10:55:27;47.52;45.34;62.19;;
70077;Laerm;57448;51.490;5.436;2024-01-16T10:57:53;48.41;45.52;66.76;;
70077;Laerm;57448;51.490;5.436;2024-01-16T11:00:21;48.12;45.12;61.49;;
70077;Laerm;57448;51.490;5.436;2024-01-16T11:02:51;46.88;45.02;51.78;;
70077;Laerm;57448;51.490;5.436;2024-01-16T11:05:19;54.19;45.91;67.56;;
70077;Laerm;57448;51.490;5.436;2024-01-16T11:07:45;47.52;44.83;60.93;;
70077;Laerm;57448;51.490;5.436;2024-01-16T11:10:12;47.44;45.44;53.26;;
70077;Laerm;57448;51.490;5.436;2024-01-16T11:12:38;48.13;46.11;53.75;;
70077;Laerm;57448;51.490;5.436;2024-01-16T11:15:05;47.65;45.49;58.26;;
70077;Laerm;57448;51.490;5.436;2024-01-16T11:17:34;48.49;46.19;58.23;;
70077;Laerm;57448;51.490;5.436;2024-01-16T11:20:03;48.36;46.18;64.62;;
70077;Laerm;57448;51.490;5.436;2024-01-16T11:22:38;47.61;45.43;60.27;;
70077;Laerm;57448;51.490;5.436;2024-01-16T11:25:11;47.33;45.05;50.40;;
70077;Laerm;57448;51.490;5.436;2024-01-16T11:27:40;47.37;45.70;51.62;;
70077;Laerm;57448;51.490;5.436;2024-01-16T11:30:06;47.08;45.55;49.76;;
70077;Laerm;57448;51.490;5.436;2024-01-16T11:32:33;47.62;45.50;60.36;;
70077;Laerm;57448;51.490;5.436;2024-01-16T11:34:58;52.08;46.85;71.03;;
70077;Laerm;57448;51.490;5.436;2024-01-16T11:37:30;48.25;46.41;60.92;;
70077;Laerm;57448;51.490;5.436;2024-01-16T11:40:20;48.99;46.64;59.89;;
70077;Laerm;57448;51.490;5.436;2024-01-16T11:42:46;50.37;46.89;64.49;;
70077;Laerm;57448;51.490;5.436;2024-01-16T11:50:35;49.41;47.33;53.62;;
70077;Laerm;57448;51.490;5.436;2024-01-16T11:53:01;55.12;48.03;71.00;;
70077;Laerm;57448;51.490;5.436;2024-01-16T11:55:31;54.15;48.42;68.58;;
70077;Laerm;57448;51.490;5.436;2024-01-16T12:00:30;50.05;47.56;63.87;;
70077;Laerm;57448;51.490;5.436;2024-01-16T12:02:57;48.91;47.10;54.60;;
70077;Laerm;57448;51.490;5.436;2024-01-16T12:05:26;55.67;47.43;74.19;;
70077;Laerm;57448;51.490;5.436;2024-01-16T12:07:52;55.24;47.71;69.58;;
70077;Laerm;57448;51.490;5.436;2024-01-16T12:10:21;50.59;47.83;67.64;;
70077;Laerm;57448;51.490;5.436;2024-01-16T12:12:47;49.24;47.51;62.44;;
70077;Laerm;57448;51.490;5.436;2024-01-16T12:15:13;49.32;47.70;55.58;;
70077;Laerm;57448;51.490;5.436;2024-01-16T12:17:50;51.01;47.99;68.76;;
70077;Laerm;57448;51.490;5.436;2024-01-16T12:20:16;49.44;47.80;55.53;;
70077;Laerm;57448;51.490;5.436;2024-01-16T12:22:42;48.95;47.34;53.39;;
70077;Laerm;57448;51.490;5.436;2024-01-16T12:25:08;49.23;47.41;65.13;;
70077;Laerm;57448;51.490;5.436;2024-01-16T12:27:34;49.55;47.46;53.17;;
70077;Laerm;57448;51.490;5.436;2024-01-16T12:30:09;49.25;47.65;59.53;;
70077;Laerm;57448;51.490;5.436;2024-01-16T12:32:35;51.62;48.07;65.13;;
70077;Laerm;57448;51.490;5.436;2024-01-16T12:35:00;51.36;48.15;70.99;;
70077;Laerm;57448;51.490;5.436;2024-01-16T12:37:26;49.05;47.81;54.55;;
70077;Laerm;57448;51.490;5.436;2024-01-16T12:39:52;54.70;47.69;66.84;;
70077;Laerm;57448;51.490;5.436;2024-01-16T12:42:17;55.89;47.94;69.42;;
70077;Laerm;57448;51.490;5.436;2024-01-16T12:44:43;53.56;48.09;61.59;;
70077;Laerm;57448;51.490;5.436;2024-01-16T12:47:08;50.55;47.37;59.02;;
70077;Laerm;57448;51.490;5.436;2024-01-16T12:49:40;50.74;47.57;68.50;;
70077;Laerm;57448;51.490;5.436;2024-01-16T12:52:15;48.68;47.14;58.63;;
70077;Laerm;57448;51.490;5.436;2024-01-16T12:54:41;49.10;46.85;57.93;;
70077;Laerm;57448;51.490;5.436;2024-01-16T12:57:06;48.11;46.17;54.58;;
70077;Laerm;57448;51.490;5.436;2024-01-16T12:59:32;49.24;47.02;59.16;;
70077;Laerm;57448;51.490;5.436;2024-01-16T13:01:57;48.29;46.26;58.89;;
70077;Laerm;57448;51.490;5.436;2024-01-16T13:04:23;47.81;46.25;56.10;;
70077;Laerm;57448;51.490;5.436;2024-01-16T13:06:48;51.34;45.96;71.47;;
70077;Laerm;57448;51.490;5.436;2024-01-16T13:09:14;49.38;46.21;59.79;;
70077;Laerm;57448;51.490;5.436;2024-01-16T13:11:50;49.11;44.95;60.80;;
70077;Laerm;57448;51.490;5.436;2024-01-16T13:14:16;52.09;46.19;67.34;;
70077;Laerm;57448;51.490;5.436;2024-01-16T13:16:41;50.08;45.76;62.05;;
70077;Laerm;57448;51.490;5.436;2024-01-16T13:19:07;49.85;45.43;65.70;;
70077;Laerm;57448;51.490;5.436;2024-01-16T13:21:35;52.03;45.59;65.40;;
70077;Laerm;57448;51.490;5.436;2024-01-16T13:24:02;49.03;45.20;67.82;;
70077;Laerm;57448;51.490;5.436;2024-01-16T13:26:28;56.04;46.08;71.89;;
70077;Laerm;57448;51.490;5.436;2024-01-16T13:28:53;54.36;44.90;69.38;;
70077;Laerm;57448;51.490;5.436;2024-01-16T13:31:18;51.80;45.39;72.77;;
70077;Laerm;57448;51.490;5.436;2024-01-16T13:33:44;51.60;45.44;69.57;;
70077;Laerm;57448;51.490;5.436;2024-01-16T13:36:09;48.79;45.28;65.18;;
70077;Laerm;57448;51.490;5.436;2024-01-16T13:38:34;48.68;44.73;64.65;;
70077;Laerm;57448;51.490;5.436;2024-01-16T13:41:00;51.52;46.12;67.29;;
70077;Laerm;57448;51.490;5.436;2024-01-16T13:43:27;50.11;45.45;62.42;;
70077;Laerm;57448;51.490;5.436;2024-01-16T13:45:52;48.83;45.64;68.08;;